createdAt,value
2019-05-10T00:01:24.478Z,39.85
2019-05-10T00:04:15.281Z,40.35
2019-05-10T00:07:05.969Z,42.20
2019-05-10T00:09:38.428Z,41.80
2019-05-10T00:12:26.369Z,38.73
2019-05-10T00:14:59.326Z,40.20
2019-05-10T00:17:33.574Z,40.78
2019-05-10T00:20:07.484Z,41.77
2019-05-10T00:22:41.299Z,41.88
2019-05-10T00:25:15.400Z,42.00
2019-05-10T00:27:48.581Z,41.30
2019-05-10T00:30:22.427Z,41.95
2019-05-10T00:32:56.617Z,42.40
2019-05-10T00:35:30.827Z,41.23
2019-05-10T00:38:04.536Z,40.95
2019-05-10T00:40:38.404Z,40.38
2019-05-10T00:43:12.792Z,39.80
2019-05-10T00:45:46.874Z,39.95
2019-05-10T00:48:20.583Z,38.65
2019-05-10T00:50:53.863Z,39.67
2019-05-10T00:53:28.117Z,40.90
2019-05-10T00:56:01.886Z,39.25
2019-05-10T00:58:36.111Z,38.75
2019-05-10T01:01:09.949Z,38.42
2019-05-10T01:03:43.758Z,37.98
2019-05-10T01:06:17.990Z,38.63
2019-05-10T01:08:51.370Z,38.08
2019-05-10T01:11:25.579Z,39.50
2019-05-10T01:13:58.751Z,37.03
2019-05-10T01:16:32.863Z,35.50
2019-05-10T01:19:06.702Z,38.83
2019-05-10T01:21:40.095Z,35.92
2019-05-10T01:24:14.278Z,37.10
2019-05-10T01:26:47.974Z,37.28
2019-05-10T01:29:21.587Z,37.35
2019-05-10T01:31:55.907Z,39.55
2019-05-10T01:34:29.659Z,38.13
2019-05-10T01:37:03.553Z,37.15
2019-05-10T01:39:37.668Z,38.15
2019-05-10T01:42:11.976Z,38.08
2019-05-10T01:44:46.195Z,38.33
2019-05-10T01:47:19.874Z,37.45
2019-05-10T01:49:53.067Z,36.15
2019-05-10T01:52:26.704Z,35.33
2019-05-10T01:54:59.987Z,35.98
2019-05-10T01:57:33.566Z,35.35
2019-05-10T02:00:05.727Z,34.83
2019-05-10T02:02:39.950Z,35.80
2019-05-10T02:05:15.056Z,35.20
2019-05-10T02:07:48.827Z,36.35
2019-05-10T02:10:22.929Z,33.48
2019-05-10T02:12:57.047Z,33.40
2019-05-10T02:15:30.822Z,35.85
2019-05-10T02:18:04.087Z,34.15
2019-05-10T02:20:37.848Z,33.95
2019-05-10T02:23:11.527Z,34.63
2019-05-10T02:25:45.322Z,34.13
2019-05-10T02:28:18.616Z,32.25
2019-05-10T02:30:52.432Z,33.75
2019-05-10T02:33:26.788Z,32.13
2019-05-10T02:36:00.528Z,33.85
2019-05-10T02:38:34.157Z,32.33
2019-05-10T02:41:07.900Z,32.42
2019-05-10T02:43:41.571Z,32.00
2019-05-10T02:46:15.343Z,32.15
2019-05-10T02:48:48.563Z,30.85
2019-05-10T02:51:22.577Z,30.08
2019-05-10T02:53:56.286Z,33.23
2019-05-10T02:56:32.522Z,31.65
2019-05-10T02:59:07.100Z,29.45
2019-05-10T03:01:46.444Z,32.53
2019-05-10T03:04:22.283Z,31.35
2019-05-10T03:07:04.131Z,31.75
2019-05-10T03:09:38.065Z,29.10
2019-05-10T03:12:25.512Z,30.60
2019-05-10T03:15:00.885Z,29.65
2019-05-10T03:17:34.184Z,30.02
2019-05-10T03:20:08.655Z,29.40
2019-05-10T03:22:46.337Z,28.83
2019-05-10T03:25:21.509Z,28.70
2019-05-10T03:27:55.839Z,29.15
2019-05-10T03:30:30.023Z,27.80
2019-05-10T03:33:02.790Z,28.65
2019-05-10T03:35:36.104Z,29.60
2019-05-10T03:38:09.829Z,29.48
2019-05-10T03:40:43.914Z,28.25
2019-05-10T03:43:18.139Z,30.37
2019-05-10T03:45:52.372Z,27.20
2019-05-10T03:48:26.590Z,28.50
2019-05-10T03:51:00.806Z,29.32
2019-05-10T03:53:35.039Z,27.70
2019-05-10T03:56:08.764Z,27.95
2019-05-10T03:58:42.941Z,27.37
2019-05-10T04:01:16.719Z,27.30
2019-05-10T04:03:50.368Z,27.58
2019-05-10T04:06:24.334Z,26.35
2019-05-10T04:08:58.477Z,25.25
2019-05-10T04:11:31.622Z,25.90
2019-05-10T04:14:04.837Z,24.75
2019-05-10T04:16:39.078Z,26.68
2019-05-10T04:19:12.416Z,25.37
2019-05-10T04:21:45.694Z,26.15
2019-05-10T04:24:19.987Z,25.05
2019-05-10T04:26:53.716Z,26.60
2019-05-10T04:29:27.900Z,25.60
2019-05-10T04:32:02.196Z,24.52
2019-05-10T04:34:35.623Z,24.18
2019-05-10T04:37:09.432Z,26.57
2019-05-10T04:39:43.645Z,24.47
2019-05-10T04:42:17.457Z,25.48
2019-05-10T04:44:53.414Z,26.60
2019-05-10T04:47:26.802Z,25.23
2019-05-10T04:50:00.094Z,26.42
2019-05-10T04:52:35.359Z,26.52
2019-05-10T04:55:08.637Z,26.25
2019-05-10T04:57:50.659Z,26.12
2019-05-10T05:00:18.265Z,25.57
2019-05-10T05:02:51.698Z,24.32
2019-05-10T05:05:25.918Z,26.68
2019-05-10T05:08:00.639Z,27.17
2019-05-10T05:10:34.720Z,26.30
2019-05-10T05:13:08.556Z,27.67
2019-05-10T05:15:42.647Z,27.60
2019-05-10T05:18:16.986Z,25.57
2019-05-10T05:20:51.079Z,26.77
2019-05-10T05:23:25.088Z,24.87
2019-05-10T05:25:58.480Z,26.40
2019-05-10T05:28:32.695Z,27.52
2019-05-10T05:31:06.003Z,27.20
2019-05-10T05:33:40.112Z,26.42
2019-05-10T05:36:12.421Z,29.45
2019-05-10T05:38:47.123Z,27.27
2019-05-10T05:41:20.242Z,26.30
2019-05-10T05:43:53.163Z,27.65
2019-05-10T05:46:26.473Z,29.23
2019-05-10T05:48:59.719Z,27.52
2019-05-10T05:51:32.050Z,27.95
2019-05-10T05:54:04.605Z,29.10
2019-05-10T05:56:36.657Z,27.60
2019-05-10T05:59:09.131Z,28.55
2019-05-10T06:01:41.437Z,31.20
2019-05-10T06:04:15.130Z,31.17
2019-05-10T06:06:48.418Z,33.75
2019-05-10T06:09:22.924Z,30.00
2019-05-10T06:11:56.711Z,32.80
2019-05-10T06:14:31.081Z,31.97
2019-05-10T06:17:04.958Z,30.70
2019-05-10T06:19:38.754Z,27.62
2019-05-10T06:22:12.145Z,28.02
2019-05-10T06:24:46.605Z,27.65
2019-05-10T06:27:21.669Z,27.80
2019-05-10T06:29:54.495Z,26.35
2019-05-10T06:32:29.099Z,25.50
2019-05-10T06:35:02.224Z,29.00
2019-05-10T06:37:36.387Z,30.57
2019-05-10T06:40:10.717Z,23.50
2019-05-10T06:42:42.696Z,30.55
2019-05-10T06:45:16.405Z,25.48
2019-05-10T06:47:52.897Z,25.82
2019-05-10T06:50:29.860Z,25.10
2019-05-10T06:53:00.538Z,25.82
2019-05-10T06:55:33.003Z,24.12
2019-05-10T06:58:06.368Z,23.25
2019-05-10T07:00:44.860Z,22.65
2019-05-10T07:03:14.805Z,21.35
2019-05-10T07:05:47.388Z,22.73
2019-05-10T07:08:20.511Z,20.92
2019-05-10T07:10:54.578Z,19.82
2019-05-10T07:13:28.838Z,20.00
2019-05-10T07:16:02.576Z,21.40
2019-05-10T07:18:36.781Z,20.25
2019-05-10T07:21:10.578Z,19.20
2019-05-10T07:23:46.437Z,19.37
2019-05-10T07:26:24.315Z,18.98
2019-05-10T07:28:57.420Z,18.65
2019-05-10T07:31:29.681Z,19.35
2019-05-10T07:34:02.995Z,19.00
2019-05-10T07:36:36.356Z,18.87
2019-05-10T07:39:10.768Z,18.48
2019-05-10T07:41:43.078Z,17.23
2019-05-10T07:44:16.658Z,17.40
2019-05-10T07:46:54.257Z,33.35
2019-05-10T07:49:30.351Z,22.50
2019-05-10T07:52:03.074Z,18.50
2019-05-10T07:54:37.701Z,18.77
2019-05-10T07:57:11.760Z,18.92
2019-05-10T07:59:50.830Z,18.10
2019-05-10T08:02:19.150Z,18.20
2019-05-10T08:04:53.643Z,18.50
2019-05-10T08:07:29.246Z,17.85
2019-05-10T08:10:04.458Z,16.87
2019-05-10T08:12:35.198Z,18.73
2019-05-10T08:15:10.459Z,18.20
2019-05-10T08:17:45.648Z,17.37
2019-05-10T08:20:31.155Z,16.37
2019-05-10T08:22:53.139Z,15.95
2019-05-10T08:25:29.020Z,15.20
2019-05-10T08:28:03.266Z,15.10
2019-05-10T08:30:51.348Z,16.70
2019-05-10T08:33:14.980Z,17.80
2019-05-10T08:35:52.521Z,17.85
2019-05-10T08:38:22.055Z,16.93
2019-05-10T08:40:56.503Z,11.48
2019-05-10T08:43:38.660Z,11.70
2019-05-10T08:46:06.555Z,11.93
2019-05-10T08:48:46.648Z,13.70
2019-05-10T08:51:14.977Z,12.45
2019-05-10T08:53:55.872Z,13.18
2019-05-10T08:56:24.463Z,11.48
2019-05-10T08:58:58.270Z,13.08
2019-05-10T09:01:38.753Z,13.28
2019-05-10T09:04:10.849Z,10.98
2019-05-10T09:06:47.403Z,10.48
2019-05-10T09:09:19.232Z,11.33
2019-05-10T09:11:57.750Z,12.78
2019-05-10T09:14:28.965Z,12.63
2019-05-10T09:17:04.400Z,11.50
2019-05-10T09:19:41.919Z,11.97
2019-05-10T09:22:14.352Z,11.33
2019-05-10T09:24:48.831Z,11.85
2019-05-10T09:27:23.456Z,10.35
2019-05-10T09:29:56.750Z,10.08
2019-05-10T09:32:33.355Z,10.23
2019-05-10T09:35:09.210Z,12.93
2019-05-10T09:37:42.182Z,12.37
2019-05-10T09:40:16.247Z,10.63
2019-05-10T09:42:52.302Z,9.55
2019-05-10T09:45:26.213Z,9.83
2019-05-10T09:48:02.535Z,11.18
2019-05-10T09:50:44.291Z,10.70
2019-05-10T09:53:15.581Z,10.35
2019-05-10T09:55:55.325Z,9.70
2019-05-10T09:58:23.068Z,11.40
2019-05-10T10:01:11.070Z,9.50
2019-05-10T10:03:39.853Z,8.88
2019-05-10T10:06:11.159Z,8.65
2019-05-10T10:08:51.192Z,7.60
2019-05-10T10:11:19.903Z,7.55
2019-05-10T10:13:58.964Z,7.97
2019-05-10T10:16:30.733Z,7.25
2019-05-10T10:19:07.206Z,7.85
2019-05-10T10:21:40.591Z,7.50
2019-05-10T10:24:17.827Z,8.15
2019-05-10T10:26:53.964Z,9.40
2019-05-10T10:29:28.743Z,9.35
2019-05-10T10:32:02.408Z,8.43
2019-05-10T10:34:40.935Z,7.97
2019-05-10T10:37:14.578Z,7.70
2019-05-10T10:39:47.685Z,9.18
2019-05-10T10:42:21.186Z,8.18
2019-05-10T10:44:56.690Z,8.23
2019-05-10T10:47:32.096Z,8.75
2019-05-10T10:50:13.196Z,8.70
2019-05-10T10:52:44.206Z,7.60
2019-05-10T10:55:18.679Z,8.18
2019-05-10T10:57:53.184Z,7.30
2019-05-10T11:00:38.822Z,6.45
2019-05-10T11:03:12.750Z,6.03
2019-05-10T11:05:46.554Z,5.37
2019-05-10T11:08:20.391Z,6.78
2019-05-10T11:10:54.568Z,5.65
2019-05-10T11:13:41.686Z,5.67
2019-05-10T11:16:09.869Z,5.42
2019-05-10T11:18:37.963Z,5.72
2019-05-10T11:21:11.737Z,5.70
2019-05-10T11:23:45.198Z,6.95
2019-05-10T11:26:21.616Z,5.95
2019-05-10T11:28:55.332Z,5.90
2019-05-10T11:31:31.155Z,5.30
2019-05-10T11:34:06.245Z,6.67
2019-05-10T11:36:45.265Z,6.50
2019-05-10T11:39:26.000Z,5.80
2019-05-10T11:42:00.973Z,5.08
2019-05-10T11:44:26.855Z,5.22
2019-05-10T11:47:01.494Z,4.78
2019-05-10T11:49:35.619Z,5.08
2019-05-10T11:52:12.902Z,5.08
2019-05-10T11:54:45.395Z,4.60
2019-05-10T11:57:21.766Z,4.92
2019-05-10T11:59:54.295Z,4.47
2019-05-10T12:02:37.406Z,4.10
2019-05-10T12:05:11.012Z,3.92
2019-05-10T12:07:45.500Z,4.00
2019-05-10T12:13:04.835Z,3.20
2019-05-10T12:15:25.337Z,3.33
2019-05-10T12:17:59.621Z,3.42
2019-05-10T12:20:54.371Z,3.12
2019-05-10T12:23:13.130Z,2.55
2019-05-10T12:25:59.283Z,2.67
2019-05-10T12:26:27.548Z,3.62
2019-05-10T12:28:24.490Z,2.40
2019-05-10T12:30:52.061Z,2.47
2019-05-10T12:33:27.526Z,1.98
2019-05-10T12:35:59.580Z,2.65
2019-05-10T12:38:35.846Z,2.45
2019-05-10T12:41:06.698Z,2.40
2019-05-10T12:43:43.160Z,2.67
2019-05-10T12:46:14.595Z,3.00
2019-05-10T12:48:46.993Z,2.60
2019-05-10T12:51:21.151Z,2.83
2019-05-10T12:53:54.275Z,3.35
2019-05-10T12:56:27.191Z,3.27
2019-05-10T12:58:59.675Z,3.27
2019-05-10T13:01:33.289Z,2.98
2019-05-10T13:04:13.400Z,3.27
2019-05-10T13:06:40.886Z,2.95
2019-05-10T13:09:14.482Z,3.02
2019-05-10T13:11:47.430Z,3.27
2019-05-10T13:14:20.343Z,4.53
2019-05-10T13:16:53.363Z,4.58
2019-05-10T13:19:26.409Z,3.85
2019-05-10T13:22:00.829Z,3.50
2019-05-10T13:24:33.524Z,2.70
2019-05-10T13:27:06.413Z,2.10
2019-05-10T13:29:40.559Z,1.90
2019-05-10T13:32:15.001Z,2.12
2019-05-10T13:34:48.326Z,2.15
2019-05-10T13:37:24.776Z,2.42
2019-05-10T13:39:58.330Z,2.27
2019-05-10T13:42:30.878Z,2.83
2019-05-10T13:45:05.716Z,3.52
2019-05-10T13:47:38.666Z,3.60
2019-05-10T13:50:12.226Z,3.40
2019-05-10T13:52:45.685Z,3.58
2019-05-10T13:55:18.131Z,2.87
2019-05-10T13:57:53.999Z,2.62
2019-05-10T14:00:33.155Z,2.80
2019-05-10T14:03:04.852Z,2.67
2019-05-10T14:05:35.873Z,2.60
2019-05-10T14:08:09.312Z,2.70
2019-05-10T14:10:42.614Z,2.52
2019-05-10T14:13:16.960Z,2.65
2019-05-10T14:15:50.228Z,2.83
2019-05-10T14:18:23.022Z,2.77
2019-05-10T14:20:56.801Z,2.70
2019-05-10T14:23:35.030Z,2.70
2019-05-10T14:26:09.234Z,2.77
2019-05-10T14:28:40.371Z,2.58
2019-05-10T14:31:13.920Z,2.98
2019-05-10T14:33:49.592Z,2.70
2019-05-10T14:36:20.099Z,3.10
2019-05-10T14:38:56.057Z,2.80
2019-05-10T14:41:27.771Z,2.45
2019-05-10T14:44:01.753Z,2.60
2019-05-10T14:46:35.883Z,2.40
2019-05-10T14:49:11.483Z,2.20
2019-05-10T14:51:58.552Z,1.85
2019-05-10T14:54:22.025Z,1.70
2019-05-10T14:56:56.307Z,1.40
2019-05-10T14:59:30.704Z,1.65
2019-05-10T15:02:04.152Z,1.20
2019-05-10T15:04:47.130Z,1.30
2019-05-10T15:07:16.410Z,1.12
2019-05-10T15:09:54.203Z,1.10
2019-05-10T15:12:25.081Z,1.12
2019-05-10T15:15:00.136Z,1.40
2019-05-10T15:17:33.800Z,1.20
2019-05-10T15:20:07.521Z,0.80
2019-05-10T15:22:41.428Z,0.93
2019-05-10T15:25:15.233Z,0.80
2019-05-10T15:27:49.112Z,0.95
2019-05-10T15:30:22.845Z,1.10
2019-05-10T15:32:57.816Z,1.40
2019-05-10T15:35:32.076Z,1.47
2019-05-10T15:38:05.972Z,1.30
2019-05-10T15:40:44.359Z,1.70
2019-05-10T15:43:17.267Z,1.62
2019-05-10T15:45:54.757Z,1.42
2019-05-10T15:48:27.453Z,1.70
2019-05-10T15:51:01.187Z,1.72
2019-05-10T15:53:36.053Z,1.60
2019-05-10T15:56:10.337Z,1.22
2019-05-10T15:58:44.675Z,1.17
2019-05-10T16:01:26.199Z,1.25
2019-05-10T16:03:53.908Z,1.30
2019-05-10T16:06:32.590Z,1.40
2019-05-10T16:09:16.379Z,1.52
2019-05-10T16:11:38.533Z,1.67
2019-05-10T16:14:12.867Z,1.70
2019-05-10T16:16:48.695Z,2.20
2019-05-10T16:19:22.648Z,4.03
2019-05-10T16:21:58.250Z,7.47
2019-05-10T16:24:32.826Z,4.92
2019-05-10T16:27:06.661Z,3.50
2019-05-10T16:29:41.435Z,3.40
2019-05-10T16:32:16.428Z,3.42
2019-05-10T16:34:50.201Z,3.80
2019-05-10T16:37:25.144Z,3.77
2019-05-10T16:39:59.651Z,4.92
2019-05-10T16:42:34.527Z,5.30
2019-05-10T16:45:10.890Z,5.10
2019-05-10T16:47:43.781Z,4.50
2019-05-10T16:50:17.256Z,3.55
2019-05-10T16:52:51.170Z,3.60
2019-05-10T16:55:23.817Z,3.55
2019-05-10T16:57:57.162Z,3.90
2019-05-10T17:00:31.525Z,4.40
2019-05-10T17:03:05.366Z,3.42
2019-05-10T17:05:52.326Z,3.22
2019-05-10T17:08:12.842Z,3.02
2019-05-10T17:10:46.754Z,3.33
2019-05-10T17:13:19.789Z,3.75
2019-05-10T17:15:52.690Z,3.27
2019-05-10T17:18:25.838Z,2.90
2019-05-10T17:21:18.744Z,3.42
2019-05-10T17:23:41.637Z,2.83
2019-05-10T17:26:14.599Z,3.67
2019-05-10T17:28:47.151Z,3.47
2019-05-10T17:31:20.688Z,3.65
2019-05-10T17:33:53.659Z,3.05
2019-05-10T17:36:26.362Z,3.00
2019-05-10T17:38:59.261Z,2.72
2019-05-10T17:41:39.173Z,2.70
2019-05-10T17:44:17.515Z,3.10
2019-05-10T17:46:57.438Z,3.30
2019-05-10T17:49:30.872Z,3.08
2019-05-10T17:52:03.333Z,3.08
2019-05-10T17:54:39.295Z,3.47
2019-05-10T17:57:16.739Z,3.52
2019-05-10T17:59:52.245Z,3.98
2019-05-10T18:02:21.776Z,3.60
2019-05-10T18:04:54.375Z,4.03
2019-05-10T18:07:27.071Z,4.53
2019-05-10T18:09:59.126Z,5.25
2019-05-10T18:12:31.791Z,4.78
2019-05-10T18:15:04.990Z,4.75
2019-05-10T18:17:39.384Z,4.55
2019-05-10T18:20:13.068Z,5.03
2019-05-10T18:22:46.423Z,4.10
2019-05-10T18:25:22.352Z,4.87
2019-05-10T18:27:56.615Z,4.50
2019-05-10T18:30:30.082Z,4.17
2019-05-10T18:33:06.728Z,4.12
2019-05-10T18:35:37.619Z,3.77
2019-05-10T18:38:10.521Z,3.98
2019-05-10T18:40:43.942Z,4.33
2019-05-10T18:43:17.447Z,4.10
2019-05-10T18:45:49.974Z,3.80
2019-05-10T18:48:22.847Z,3.95
2019-05-10T18:50:56.352Z,3.90
2019-05-10T18:53:29.840Z,3.50
2019-05-10T18:56:04.102Z,4.25
2019-05-10T18:58:40.731Z,5.25
2019-05-10T19:01:16.783Z,5.55
2019-05-10T19:03:51.387Z,8.03
2019-05-10T19:06:24.912Z,8.43
2019-05-10T19:08:59.171Z,9.45
2019-05-10T19:11:33.265Z,10.35
2019-05-10T19:14:06.579Z,12.88
2019-05-10T19:16:39.141Z,13.03
2019-05-10T19:19:11.135Z,12.68
2019-05-10T19:21:43.090Z,10.75
2019-05-10T19:24:16.175Z,9.55
2019-05-10T19:26:49.035Z,8.85
2019-05-10T19:29:22.551Z,8.48
2019-05-10T19:31:57.920Z,9.80
2019-05-10T19:34:36.785Z,8.90
2019-05-10T19:37:26.678Z,8.05
2019-05-10T19:39:46.134Z,7.97
2019-05-10T19:42:18.564Z,7.95
2019-05-10T19:44:51.923Z,7.32
2019-05-10T19:47:23.913Z,9.45
2019-05-10T19:49:56.810Z,9.05
2019-05-10T19:52:29.191Z,9.23
2019-05-10T19:55:02.260Z,9.40
2019-05-10T19:57:35.750Z,19.02
2019-05-10T20:00:08.177Z,21.85
2019-05-10T20:02:41.391Z,21.25
2019-05-10T20:05:14.394Z,21.40
2019-05-10T20:07:47.273Z,21.52
2019-05-10T20:10:21.398Z,21.77
2019-05-10T20:13:16.062Z,21.37
2019-05-10T20:15:55.533Z,21.68
2019-05-10T20:18:34.551Z,21.60
2019-05-10T20:21:10.966Z,44.00
2019-05-10T20:23:47.756Z,38.73
2019-05-10T20:26:27.927Z,23.32
2019-05-10T20:29:03.408Z,21.20
2019-05-10T20:31:36.837Z,20.80
2019-05-10T20:34:11.170Z,20.20
2019-05-10T20:36:45.308Z,19.77
2019-05-10T20:39:52.891Z,19.05
2019-05-10T20:42:28.374Z,19.10
2019-05-10T20:45:07.691Z,19.00
2019-05-10T20:47:37.915Z,18.45
2019-05-10T20:50:13.756Z,17.85
2019-05-10T20:52:47.081Z,18.15
2019-05-10T20:55:21.014Z,19.30
2019-05-10T20:57:57.028Z,17.82
2019-05-10T21:00:30.120Z,18.62
2019-05-10T21:03:03.917Z,17.90
2019-05-10T21:05:38.200Z,18.75
2019-05-10T21:08:16.846Z,18.10
2019-05-10T21:10:50.134Z,18.52
2019-05-10T21:14:18.345Z,18.77
2019-05-10T21:16:59.033Z,17.57
2019-05-10T21:19:32.587Z,18.30
2019-05-10T21:22:06.737Z,17.75
2019-05-10T21:24:43.624Z,16.60
2019-05-10T21:27:19.628Z,15.83
2019-05-10T21:29:53.185Z,15.70
2019-05-10T21:32:27.441Z,15.40
2019-05-10T21:35:00.037Z,16.90
2019-05-10T21:37:38.384Z,16.10
2019-05-10T21:40:12.701Z,16.45
2019-05-10T21:42:48.086Z,15.15
2019-05-10T21:45:22.314Z,15.53
2019-05-10T21:47:56.399Z,15.15
2019-05-10T21:50:32.530Z,14.10
2019-05-10T21:53:08.877Z,14.23
2019-05-10T21:55:43.737Z,13.83
2019-05-10T21:58:19.868Z,13.38
2019-05-10T22:01:12.292Z,12.95
2019-05-10T22:03:46.145Z,14.47
2019-05-10T22:06:25.354Z,13.62
2019-05-10T22:08:59.064Z,13.65
2019-05-10T22:11:32.987Z,13.62
2019-05-10T22:14:07.537Z,15.20
2019-05-10T22:16:41.058Z,14.53
2019-05-10T22:19:15.720Z,14.85
2019-05-10T22:21:50.005Z,15.50
2019-05-10T22:24:24.834Z,14.33
2019-05-10T22:26:59.684Z,14.45
2019-05-10T22:29:33.610Z,15.58
2019-05-10T22:32:07.402Z,15.13
2019-05-10T22:34:46.320Z,15.95
2019-05-10T22:37:20.892Z,16.17
2019-05-10T22:40:13.716Z,15.78
2019-05-10T22:42:48.993Z,14.87
2019-05-10T22:45:25.685Z,15.95
2019-05-10T22:48:01.870Z,14.30
2019-05-10T22:50:36.993Z,13.43
2019-05-10T22:53:10.582Z,14.05
2019-05-10T22:55:44.973Z,15.55
2019-05-10T22:58:20.359Z,14.68
2019-05-10T23:01:00.332Z,14.63
2019-05-10T23:03:35.253Z,14.15
2019-05-10T23:06:08.993Z,14.98
2019-05-10T23:08:44.069Z,15.08
2019-05-10T23:11:19.416Z,14.83
2019-05-10T23:13:58.113Z,13.80
2019-05-10T23:16:33.430Z,13.58
2019-05-10T23:19:07.749Z,13.70
2019-05-10T23:21:41.118Z,13.22
2019-05-10T23:24:19.392Z,14.07
2019-05-10T23:26:53.410Z,14.07
2019-05-10T23:29:26.985Z,13.35
2019-05-10T23:32:01.148Z,13.78
2019-05-10T23:34:34.774Z,14.50
2019-05-10T23:37:08.999Z,14.07
2019-05-10T23:39:44.440Z,14.85
2019-05-10T23:42:18.252Z,14.18
2019-05-10T23:44:51.623Z,14.15
2019-05-10T23:47:25.936Z,14.35
2019-05-10T23:49:59.759Z,13.75
2019-05-10T23:52:33.598Z,14.50
2019-05-10T23:55:08.921Z,14.43
2019-05-10T23:57:43.543Z,12.93
